Time;durP1;ratioP1;P1;durP2;ratioP2;P2;SDS_P1;SDS_P2;PMS_P1;PMS_P2;Temp;Humidity;BMP_temperature;BMP_pressure;BME280_temperature;BME280_humidity;BME280_pressure;Samples;Min_cycle;Max_cycle;Signal;HPM_P1;HPM_P2
2021/06/19 00:02:25;;;;;;;5.45;2.30;;;;;;;25.37;50.31;100208.34;1767545;80;22161;-78
2021/06/19 00:04:51;;;;;;;5.10;2.30;;;;;;;25.35;50.43;100207.78;1775119;80;21032;-77
2021/06/19 00:07:17;;;;;;;6.78;2.70;;;;;;;25.33;50.48;100207.22;1773696;79;21085;-78
2021/06/19 00:09:43;;;;;;;4.47;2.60;;;;;;;25.29;50.58;100209.07;1784230;79;21299;-78
2021/06/19 00:12:11;;;;;;;4.75;2.67;;;;;;;25.27;50.73;100212.59;1768571;80;21027;-77
2021/06/19 00:14:37;;;;;;;6.67;2.83;;;;;;;25.25;50.82;100213.92;1775503;80;21132;-77
2021/06/19 00:17:04;;;;;;;4.65;2.72;;;;;;;25.23;50.87;100213.36;1775295;79;21049;-78
2021/06/19 00:19:30;;;;;;;5.05;2.77;;;;;;;25.20;50.93;100214.64;1772725;80;21022;-78
2021/06/19 00:21:59;;;;;;;5.35;2.77;;;;;;;25.18;51.01;100211.35;1776663;79;21061;-79
2021/06/19 00:24:26;;;;;;;5.47;2.67;;;;;;;25.16;51.16;100214.86;1776101;79;21557;-77
2021/06/19 00:26:55;;;;;;;6.55;2.60;;;;;;;25.13;51.23;100211.31;1770813;80;21526;-79
2021/06/19 00:29:22;;;;;;;2.87;2.58;;;;;;;25.09;51.29;100207.42;1778475;80;21010;-78
2021/06/19 00:31:48;;;;;;;3.17;2.55;;;;;;;25.04;51.36;100205.48;1775681;79;21035;-79
2021/06/19 00:34:15;;;;;;;5.15;3.02;;;;;;;25.02;51.47;100206.81;1754806;81;21012;-79
2021/06/19 00:36:41;;;;;;;4.83;2.67;;;;;;;25.00;51.51;100204.89;1775303;78;21053;-79
2021/06/19 00:39:08;;;;;;;3.75;2.90;;;;;;;24.98;51.82;100207.04;1764654;80;21170;-79
2021/06/19 00:41:36;;;;;;;6.50;2.60;;;;;;;24.97;51.93;100205.38;1765171;79;21535;-81
2021/06/19 00:44:05;;;;;;;6.75;2.72;;;;;;;24.95;51.93;100203.45;1734376;82;21045;-81
2021/06/19 00:46:31;;;;;;;3.40;2.67;;;;;;;24.92;51.94;100200.17;1767531;80;21017;-80
2021/06/19 00:48:58;;;;;;;3.85;2.85;;;;;;;24.90;51.93;100203.67;1759784;78;21049;-81
2021/06/19 00:51:24;;;;;;;3.80;2.58;;;;;;;24.88;51.98;100207.19;1762252;80;21125;-80
2021/06/19 00:53:52;;;;;;;3.33;2.72;;;;;;;24.87;52.01;100206.89;1770996;80;20982;-79
2021/06/19 00:56:19;;;;;;;4.67;2.58;;;;;;;24.84;52.01;100206.05;1767059;78;21509;-78
2021/06/19 00:58:46;;;;;;;5.53;2.90;;;;;;;24.81;52.13;100207.89;1772244;80;21011;-78
2021/06/19 01:01:14;;;;;;;6.87;2.60;;;;;;;24.80;52.18;100206.27;1761695;80;21493;-78
2021/06/19 01:03:42;;;;;;;4.33;2.72;;;;;;;24.78;52.19;100204.86;1787794;79;22183;-79
2021/06/19 01:06:10;;;;;;;6.08;2.83;;;;;;;24.76;52.24;100207.00;1764772;80;21048;-79
2021/06/19 01:08:36;;;;;;;3.17;2.60;;;;;;;24.73;52.33;100209.15;1769068;79;21033;-78
2021/06/19 01:11:03;;;;;;;3.00;2.40;;;;;;;24.70;52.34;100200.67;1767930;80;21534;-78
2021/06/19 01:13:30;;;;;;;4.17;2.40;;;;;;;24.67;52.40;100201.20;1767662;80;21010;-79
2021/06/19 01:16:00;;;;;;;5.87;2.77;;;;;;;24.66;52.45;100196.81;1768990;80;21049;-79
2021/06/19 01:18:26;;;;;;;3.98;2.45;;;;;;;24.65;52.52;100201.44;1768718;80;21112;-79
2021/06/19 01:20:53;;;;;;;5.30;2.60;;;;;;;24.64;52.50;100198.97;1765196;81;21033;-79
2021/06/19 01:23:19;;;;;;;5.03;2.67;;;;;;;24.62;52.56;100201.92;1758342;80;21117;-80
2021/06/19 01:25:46;;;;;;;3.08;2.70;;;;;;;24.60;52.65;100200.54;1773679;80;21053;-79
2021/06/19 01:28:14;;;;;;;3.62;2.77;;;;;;;24.57;52.71;100192.36;1791421;79;21104;-82
2021/06/19 01:30:41;;;;;;;5.85;2.67;;;;;;;24.55;52.83;100188.23;1771337;80;21007;-78
2021/06/19 01:33:08;;;;;;;3.83;2.60;;;;;;;24.51;52.93;100186.03;1781595;79;21036;-79
2021/06/19 01:35:36;;;;;;;3.40;2.70;;;;;;;24.49;53.02;100194.94;1757722;80;21539;-79
2021/06/19 01:38:04;;;;;;;5.37;2.67;;;;;;;24.46;53.06;100191.34;1782290;79;21048;-79
2021/06/19 01:40:31;;;;;;;4.90;3.47;;;;;;;24.45;53.16;100193.77;1748443;80;21828;-79
2021/06/19 01:42:58;;;;;;;4.75;3.00;;;;;;;24.41;53.18;100192.63;1769046;78;20998;-78
2021/06/19 01:45:29;;;;;;;4.50;3.00;;;;;;;24.41;53.25;100190.45;1773045;78;21014;-78
2021/06/19 01:48:02;;;;;;;5.37;2.72;;;;;;;24.38;53.29;100195.01;1759086;78;21450;-78
2021/06/19 01:50:31;;;;;;;4.60;2.60;;;;;;;24.35;53.37;100186.83;1742053;80;21064;-80
2021/06/19 01:52:58;;;;;;;3.95;3.00;;;;;;;24.33;53.46;100192.50;1770930;80;21815;-78
2021/06/19 01:55:25;;;;;;;5.30;2.65;;;;;;;24.31;53.55;100193.83;1770480;78;21189;-82
2021/06/19 01:57:54;;;;;;;6.03;3.08;;;;;;;24.29;53.63;100193.27;1774547;79;21064;-77
2021/06/19 02:02:13;;;;;;;7.37;3.08;;;;;;;24.31;53.70;100193.30;1780398;78;23479;-78
2021/06/19 02:04:40;;;;;;;5.70;2.92;;;;;;;24.21;53.83;100201.83;1730862;81;21076;-77
2021/06/19 02:07:07;;;;;;;5.28;2.90;;;;;;;24.20;53.87;100198.81;1724013;81;21125;-78
2021/06/19 02:09:33;;;;;;;3.70;2.58;;;;;;;24.20;53.93;100190.67;1735661;81;20997;-79
2021/06/19 02:12:00;;;;;;;4.85;3.05;;;;;;;24.16;53.95;100191.69;1704508;81;21052;-78
2021/06/19 02:14:27;;;;;;;5.87;3.02;;;;;;;24.15;53.98;100191.42;1729334;81;21112;-80
2021/06/19 02:16:54;;;;;;;5.87;3.25;;;;;;;24.12;53.99;100195.97;1726205;81;21563;-78
2021/06/19 02:19:21;;;;;;;5.75;3.00;;;;;;;24.10;53.99;100194.86;1726504;81;21047;-79
2021/06/19 02:21:47;;;;;;;5.92;3.00;;;;;;;24.10;54.07;100194.86;1705308;81;20990;-80
2021/06/19 02:24:14;;;;;;;3.80;3.05;;;;;;;24.08;54.08;100188.85;1716696;81;21063;-80
2021/06/19 02:26:40;;;;;;;5.42;2.83;;;;;;;24.08;54.15;100192.11;1727744;81;21020;-76
2021/06/19 02:29:06;;;;;;;5.45;2.92;;;;;;;24.08;54.21;100194.83;1724327;81;21079;-75
2021/06/19 02:31:33;;;;;;;3.25;2.95;;;;;;;24.05;54.22;100188.02;1709307;81;21119;-78
2021/06/19 02:33:59;;;;;;;2.70;2.50;;;;;;;24.04;54.29;100193.13;1722526;81;21021;-76
2021/06/19 02:36:25;;;;;;;4.37;2.55;;;;;;;24.04;54.26;100195.84;1730189;81;21128;-78
2021/06/19 02:38:52;;;;;;;5.72;2.95;;;;;;;24.04;54.27;100199.92;1738658;81;21517;-76
2021/06/19 02:41:20;;;;;;;4.75;2.70;;;;;;;24.02;54.31;100206.13;1705647;81;21040;-76
2021/06/19 02:43:47;;;;;;;3.30;2.60;;;;;;;24.01;54.35;100204.50;1726737;81;21156;-76
2021/06/19 02:46:14;;;;;;;4.62;3.00;;;;;;;24.01;54.38;100205.86;1702460;83;21537;-78
2021/06/19 02:48:40;;;;;;;5.37;2.90;;;;;;;24.00;54.41;100208.27;1715078;82;21058;-80
2021/06/19 02:51:07;;;;;;;4.22;2.72;;;;;;;24.00;54.46;100204.73;1714475;83;21010;-81
2021/06/19 02:53:34;;;;;;;5.90;3.10;;;;;;;24.02;54.49;100209.38;1717295;82;21065;-80
2021/06/19 02:56:00;;;;;;;3.75;2.83;;;;;;;24.01;54.48;100214.00;1693742;83;21166;-77
2021/06/19 02:58:27;;;;;;;5.12;3.65;;;;;;;24.01;54.50;100214.50;1712160;82;21059;-80
2021/06/19 03:00:54;;;;;;;9.75;2.80;;;;;;;24.00;54.48;100210.98;1715326;83;21109;-77
2021/06/19 03:03:21;;;;;;;7.55;3.12;;;;;;;23.99;54.45;100214.78;1687474;83;21039;-78
2021/06/19 03:05:48;;;;;;;5.65;3.10;;;;;;;24.00;54.48;100220.48;1693685;82;20986;-79
2021/06/19 03:08:14;;;;;;;4.45;2.87;;;;;;;24.00;54.54;100219.13;1695487;82;21331;-79
2021/06/19 03:10:41;;;;;;;6.15;3.02;;;;;;;24.01;54.61;100218.06;1692864;82;21023;-77
2021/06/19 03:13:08;;;;;;;3.75;2.85;;;;;;;24.01;54.67;100221.29;1700659;82;20988;-79
2021/06/19 03:15:34;;;;;;;5.20;3.00;;;;;;;24.01;54.66;100224.00;1697036;82;20996;-77
2021/06/19 03:18:01;;;;;;;7.50;2.85;;;;;;;24.02;54.67;100224.31;1689276;83;21110;-78
2021/06/19 03:20:27;;;;;;;6.28;3.05;;;;;;;24.01;54.70;100222.14;1697964;84;21103;-78
2021/06/19 03:22:59;;;;;;;5.15;2.58;;;;;;;23.95;54.72;100209.53;1704749;83;21041;-78
2021/06/19 03:25:29;;;;;;;5.42;2.65;;;;;;;24.05;54.76;100221.09;1716288;82;20999;-77
2021/06/19 03:27:57;;;;;;;5.58;2.35;;;;;;;24.08;54.77;100223.32;1699979;82;21046;-78
2021/06/19 03:30:24;;;;;;;5.35;2.47;;;;;;;24.09;54.73;100223.63;1723595;82;21041;-77
2021/06/19 03:32:50;;;;;;;3.92;2.70;;;;;;;24.11;54.72;100221.48;1731484;82;21078;-78
2021/06/19 03:35:18;;;;;;;5.65;2.72;;;;;;;24.14;54.72;100231.32;1705163;82;21014;-78
2021/06/19 03:37:48;;;;;;;4.70;2.10;;;;;;;24.17;54.64;100227.28;1712979;82;20919;-77
2021/06/19 03:40:16;;;;;;;5.22;2.52;;;;;;;24.21;54.62;100229.78;1738789;82;21030;-78
2021/06/19 03:42:43;;;;;;;4.40;2.37;;;;;;;24.24;54.41;100232.53;1741730;81;20904;-79
2021/06/19 03:45:10;;;;;;;5.05;2.45;;;;;;;24.25;54.14;100230.94;1739213;80;21089;-79
2021/06/19 03:47:41;;;;;;;4.28;2.55;;;;;;;24.27;53.94;100234.22;1731348;80;21077;-78
2021/06/19 03:50:11;;;;;;;4.50;2.40;;;;;;;24.28;53.89;100233.68;1734523;80;21046;-79
2021/06/19 03:52:37;;;;;;;3.62;2.83;;;;;;;24.30;53.74;100226.95;1736330;81;21342;-76
2021/06/19 03:55:08;;;;;;;5.42;2.02;;;;;;;24.31;53.69;100234.56;1733869;80;20979;-77
2021/06/19 03:57:37;;;;;;;4.25;2.40;;;;;;;24.31;53.58;100234.02;1698916;82;21150;-77
2021/06/19 04:00:08;;;;;;;2.58;2.25;;;;;;;24.32;53.55;100232.14;1688843;82;20979;-77
2021/06/19 04:02:36;;;;;;;7.12;2.30;;;;;;;24.31;53.54;100228.58;1751673;80;25590;-77
2021/06/19 04:05:04;;;;;;;6.90;2.33;;;;;;;24.33;53.52;100231.88;1722539;82;21074;-78
2021/06/19 04:07:32;;;;;;;6.22;2.60;;;;;;;24.36;53.42;100233.80;1724831;82;20970;-78
2021/06/19 04:09:58;;;;;;;2.45;2.25;;;;;;;24.39;53.37;100229.25;1716405;82;21104;-79
2021/06/19 04:12:25;;;;;;;3.72;2.30;;;;;;;24.41;53.33;100230.64;1715909;82;21065;-80
2021/06/19 04:14:52;;;;;;;9.18;2.50;;;;;;;24.43;53.32;100234.47;1723281;82;21207;-80
2021/06/19 04:17:19;;;;;;;4.10;2.37;;;;;;;24.46;53.21;100229.91;1722869;82;20966;-79
2021/06/19 04:19:46;;;;;;;8.48;3.35;;;;;;;24.48;53.22;100234.02;1689139;82;21035;-78
2021/06/19 04:22:13;;;;;;;4.83;2.27;;;;;;;24.50;53.24;100234.59;1692665;84;21114;-78
2021/06/19 04:24:41;;;;;;;6.42;2.35;;;;;;;24.53;53.11;100234.13;1689261;84;21031;-79
2021/06/19 04:27:14;;;;;;;2.47;2.27;;;;;;;24.55;53.31;100238.48;1705483;82;20962;-79
2021/06/19 04:29:41;;;;;;;7.08;2.52;;;;;;;24.58;53.25;100238.81;1700175;84;20992;-79
2021/06/19 04:32:08;;;;;;;4.72;2.42;;;;;;;24.62;53.19;100237.78;1696537;83;21052;-78
2021/06/19 04:34:39;;;;;;;3.30;2.40;;;;;;;24.64;53.13;100240.52;1703120;80;21135;-78
2021/06/19 04:37:14;;;;;;;2.75;2.30;;;;;;;24.66;53.17;100238.92;1715337;82;21116;-78
2021/06/19 04:39:52;;;;;;;9.78;2.17;;;;;;;24.67;52.98;100233.79;1724717;82;21033;-75
2021/06/19 04:42:14;;;;;;;3.42;2.02;;;;;;;24.68;52.90;100236.78;1724854;82;21002;-75
2021/06/19 04:47:24;;;;;;;7.17;2.52;;;;;;;24.72;52.88;100233.84;1688598;83;21139;-75
2021/06/19 04:49:50;;;;;;;6.85;2.67;;;;;;;24.75;52.93;100227.92;1707381;83;21019;-75
2021/06/19 04:52:16;;;;;;;5.35;2.75;;;;;;;24.75;53.00;100227.11;1699216;84;21093;-76
2021/06/19 04:54:43;;;;;;;4.70;2.30;;;;;;;24.76;53.03;100233.63;1718515;82;20960;-76
2021/06/19 04:57:09;;;;;;;6.90;2.52;;;;;;;24.78;53.03;100229.30;1699038;83;22125;-77
2021/06/19 04:59:37;;;;;;;3.62;2.22;;;;;;;24.79;53.07;100231.78;1655903;83;21101;-77
2021/06/19 05:02:03;;;;;;;3.98;2.30;;;;;;;24.80;52.99;100229.36;1698896;83;20959;-79
2021/06/19 05:04:30;;;;;;;4.65;2.30;;;;;;;24.81;52.94;100228.81;1662939;84;21105;-78
2021/06/19 05:06:57;;;;;;;4.95;2.25;;;;;;;24.83;53.04;100246.50;1681445;85;21492;-79
2021/06/19 05:09:23;;;;;;;5.62;2.33;;;;;;;24.84;53.03;100240.02;1718394;81;20997;-79
2021/06/19 05:11:50;;;;;;;4.55;2.62;;;;;;;24.88;52.93;100235.72;1721134;81;21080;-77
2021/06/19 05:14:16;;;;;;;5.83;2.70;;;;;;;24.90;52.92;100230.04;1719866;82;21098;-80
2021/06/19 05:16:43;;;;;;;3.65;2.50;;;;;;;24.92;52.88;100225.17;1679231;83;20997;-78
2021/06/19 05:19:11;;;;;;;2.65;2.30;;;;;;;24.95;52.89;100223.84;1656759;84;21000;-78
2021/06/19 05:21:37;;;;;;;5.33;2.37;;;;;;;24.97;52.79;100223.05;1726113;82;21501;-79
2021/06/19 05:24:07;;;;;;;3.80;2.65;;;;;;;24.92;52.82;100202.08;1729488;81;21048;-78
2021/06/19 05:26:33;;;;;;;5.33;2.62;;;;;;;24.95;52.83;100202.09;1715929;82;20989;-79
2021/06/19 05:28:59;;;;;;;4.83;2.65;;;;;;;25.06;52.94;100212.84;1712387;82;21086;-78
2021/06/19 05:31:27;;;;;;;3.22;2.30;;;;;;;25.08;53.11;100219.39;1726900;81;21002;-79
2021/06/19 05:33:53;;;;;;;6.87;2.55;;;;;;;25.09;53.14;100219.66;1732334;81;20990;-78
2021/06/19 05:36:21;;;;;;;5.40;2.30;;;;;;;25.12;53.24;100212.37;1735108;81;21041;-79
2021/06/19 05:38:49;;;;;;;6.03;2.80;;;;;;;25.12;53.12;100217.81;1725919;81;21037;-78
2021/06/19 05:41:15;;;;;;;4.50;2.58;;;;;;;25.15;53.15;100231.42;1722171;81;21061;-77
2021/06/19 05:43:42;;;;;;;3.47;2.92;;;;;;;25.17;53.08;100238.27;1728173;81;21092;-78
2021/06/19 05:46:08;;;;;;;3.45;2.47;;;;;;;25.20;53.14;100240.47;1725648;81;21029;-79
2021/06/19 05:48:34;;;;;;;5.83;3.15;;;;;;;25.23;53.07;100233.20;1702900;82;21152;-78
2021/06/19 05:51:01;;;;;;;2.98;2.55;;;;;;;25.27;52.90;100233.52;1717422;81;21057;-76
2021/06/19 05:53:28;;;;;;;3.47;2.75;;;;;;;25.28;53.05;100234.64;1723537;81;21062;-76
2021/06/19 05:55:54;;;;;;;6.40;2.72;;;;;;;25.30;52.98;100233.84;1737529;81;20993;-76
2021/06/19 05:58:21;;;;;;;6.53;3.10;;;;;;;25.33;53.03;100233.05;1725424;82;20990;-76
2021/06/19 06:00:47;;;;;;;6.40;2.62;;;;;;;25.37;52.97;100236.35;1726828;81;21098;-76
2021/06/19 06:03:14;;;;;;;3.42;2.92;;;;;;;25.39;53.01;100239.64;1728227;81;21006;-77
2021/06/19 06:05:41;;;;;;;7.58;2.72;;;;;;;25.40;53.10;100237.22;1724425;80;21519;-75
2021/06/19 06:08:07;;;;;;;5.05;2.75;;;;;;;25.45;53.05;100226.92;1743493;82;20994;-77
2021/06/19 06:10:35;;;;;;;2.92;2.40;;;;;;;25.46;53.17;100232.66;1742272;80;21066;-76
2021/06/19 06:13:03;;;;;;;4.15;2.20;;;;;;;25.49;53.39;100232.13;1736352;80;21148;-76
2021/06/19 06:15:30;;;;;;;6.87;3.20;;;;;;;25.53;53.65;100229.18;1736913;81;21023;-78
2021/06/19 06:17:56;;;;;;;5.80;2.87;;;;;;;25.57;53.53;100230.86;1743240;80;21081;-74
2021/06/19 06:20:23;;;;;;;5.15;3.10;;;;;;;25.61;53.28;100226.55;1738953;82;21007;-75
2021/06/19 06:22:51;;;;;;;4.75;2.80;;;;;;;25.63;53.08;100233.39;1739511;82;21062;-76
2021/06/19 06:25:18;;;;;;;7.58;2.50;;;;;;;25.66;52.81;100234.77;1727112;80;21096;-75
2021/06/19 06:27:44;;;;;;;3.55;2.70;;;;;;;25.69;52.50;100239.16;1737529;80;20963;-78
2021/06/19 06:30:12;;;;;;;5.83;2.90;;;;;;;25.74;52.17;100244.37;1745689;80;20956;-77
2021/06/19 06:32:39;;;;;;;4.20;2.45;;;;;;;25.74;52.15;100237.57;1744545;81;21031;-77
2021/06/19 06:35:08;;;;;;;4.37;2.83;;;;;;;25.77;52.22;100235.68;1717270;82;21034;-72
2021/06/19 06:37:36;;;;;;;5.85;2.90;;;;;;;25.82;52.15;100233.02;1739836;81;21139;-69
2021/06/19 06:40:06;;;;;;;6.47;2.30;;;;;;;25.84;52.47;100239.02;1735709;81;21024;-69
2021/06/19 06:42:32;;;;;;;4.15;2.40;;;;;;;25.84;52.63;100237.66;1740270;80;21038;-69
2021/06/19 06:44:59;;;;;;;3.17;2.30;;;;;;;25.84;52.52;100231.67;1731567;80;21046;-68
2021/06/19 06:47:25;;;;;;;4.72;2.70;;;;;;;25.84;52.74;100224.87;1684720;82;21080;-68
2021/06/19 06:49:52;;;;;;;8.60;3.12;;;;;;;25.88;52.96;100231.47;1727664;80;21777;-67
2021/06/19 06:52:18;;;;;;;11.60;4.03;;;;;;;25.91;53.07;100226.06;1739727;80;21066;-66
2021/06/19 06:54:45;;;;;;;9.60;4.45;;;;;;;25.97;53.29;100225.03;1710977;81;21066;-67
2021/06/19 06:57:11;;;;;;;6.65;3.45;;;;;;;26.02;53.15;100227.80;1737417;81;21045;-66
2021/06/19 06:59:38;;;;;;;6.83;3.47;;;;;;;26.07;52.57;100234.64;1729998;80;22064;-66
2021/06/19 07:02:04;;;;;;;6.28;3.52;;;;;;;26.11;52.48;100236.85;1742322;80;21145;-66
2021/06/19 07:04:31;;;;;;;6.25;3.40;;;;;;;26.13;52.25;100231.97;1749657;80;21002;-67
2021/06/19 07:06:57;;;;;;;7.15;3.20;;;;;;;26.16;52.28;100220.02;1753612;80;21108;-66
2021/06/19 07:09:24;;;;;;;6.30;3.35;;;;;;;26.20;52.15;100223.05;1759123;80;21048;-68
2021/06/19 07:11:50;;;;;;;7.10;3.12;;;;;;;26.23;52.10;100223.87;1745255;81;21033;-67
2021/06/19 07:14:17;;;;;;;6.42;3.17;;;;;;;26.26;52.03;100229.63;1743908;81;21082;-67
2021/06/19 07:16:45;;;;;;;4.28;3.12;;;;;;;26.31;52.01;100222.05;1754266;80;21026;-66
2021/06/19 07:19:12;;;;;;;4.58;3.10;;;;;;;26.33;52.06;100217.17;1751621;80;21560;-66
2021/06/19 07:21:39;;;;;;;5.47;3.17;;;;;;;26.37;52.04;100225.09;1754445;80;21058;-65
2021/06/19 07:24:07;;;;;;;4.10;3.05;;;;;;;26.41;52.00;100221.31;1753651;80;21066;-67
2021/06/19 07:26:33;;;;;;;6.78;3.00;;;;;;;26.45;52.03;100227.31;1751016;80;21138;-67
2021/06/19 07:29:00;;;;;;;3.08;2.67;;;;;;;26.49;51.80;100213.45;1738054;80;21046;-68
2021/06/19 07:31:26;;;;;;;5.05;2.70;;;;;;;26.54;51.75;100221.38;1751443;80;21034;-68
2021/06/19 07:33:53;;;;;;;9.10;2.98;;;;;;;26.57;51.83;100217.59;1755297;80;21529;-68
2021/06/19 07:36:19;;;;;;;4.12;2.75;;;;;;;26.62;51.82;100212.77;1754011;81;21073;-68
2021/06/19 07:38:46;;;;;;;5.60;3.20;;;;;;;26.67;51.71;100214.95;1750888;80;21105;-67
2021/06/19 07:41:13;;;;;;;7.40;2.95;;;;;;;26.71;51.65;100216.61;1751837;80;21508;-68
2021/06/19 07:43:40;;;;;;;3.08;2.62;;;;;;;26.75;51.39;100225.89;1750970;81;21163;-68
2021/06/19 07:46:07;;;;;;;7.10;2.70;;;;;;;26.79;51.23;100213.41;1750507;80;21018;-67
2021/06/19 07:48:34;;;;;;;6.20;3.05;;;;;;;26.83;50.93;100226.78;1750699;80;21521;-68
2021/06/19 07:51:00;;;;;;;3.50;2.65;;;;;;;26.87;50.68;100230.61;1755268;81;21357;-67
2021/06/19 07:53:27;;;;;;;5.80;2.65;;;;;;;26.91;50.65;100219.16;1730405;82;21057;-69
2021/06/19 07:55:53;;;;;;;5.25;2.95;;;;;;;26.94;50.68;100222.73;1713423;82;21001;-68
2021/06/19 07:58:20;;;;;;;6.92;2.83;;;;;;;26.98;50.56;100222.48;1699497;83;21034;-68
2021/06/19 08:00:46;;;;;;;5.62;2.83;;;;;;;27.02;50.92;100216.25;1695532;82;21649;-68
2021/06/19 08:03:13;;;;;;;11.22;3.65;;;;;;;27.05;51.35;100214.88;1685432;82;21162;-67
2021/06/19 08:05:40;;;;;;;7.65;2.72;;;;;;;27.09;51.22;100213.81;1686542;83;21089;-67
2021/06/19 08:08:06;;;;;;;7.08;3.77;;;;;;;27.12;51.32;100214.63;1682100;83;21102;-67
2021/06/19 08:10:33;;;;;;;6.87;4.37;;;;;;;27.14;51.63;100209.20;1693798;83;21040;-67
2021/06/19 08:12:59;;;;;;;8.70;4.75;;;;;;;27.16;51.57;100204.81;1729080;80;21022;-67
2021/06/19 08:15:26;;;;;;;7.47;4.20;;;;;;;27.18;52.24;100205.41;1693190;82;21985;-68
2021/06/19 08:17:53;;;;;;;11.15;5.10;;;;;;;27.22;52.25;100196.95;1717354;80;21023;-68
2021/06/19 08:20:19;;;;;;;10.45;4.85;;;;;;;27.25;52.17;100200.00;1707667;82;21011;-68
2021/06/19 08:22:47;;;;;;;9.70;4.53;;;;;;;27.30;52.26;100197.02;1713080;82;21069;-67
2021/06/19 08:25:13;;;;;;;7.53;4.00;;;;;;;27.31;52.22;100189.91;1734895;82;21074;-68
2021/06/19 08:27:40;;;;;;;7.47;3.67;;;;;;;27.34;51.80;100196.20;1726287;80;21104;-68
2021/06/19 08:30:08;;;;;;;7.35;3.70;;;;;;;27.38;51.41;100190.48;1732036;82;21054;-68
2021/06/19 08:32:35;;;;;;;9.20;3.55;;;;;;;27.42;50.82;100192.94;1741106;81;21019;-68
2021/06/19 08:35:02;;;;;;;5.40;3.50;;;;;;;27.46;50.46;100194.03;1744346;80;21098;-68
2021/06/19 08:37:29;;;;;;;7.25;3.42;;;;;;;27.52;50.24;100181.78;1741888;81;21698;-68
2021/06/19 08:39:57;;;;;;;8.05;3.10;;;;;;;27.56;50.17;100187.78;1739144;82;21111;-69
2021/06/19 08:42:25;;;;;;;4.12;3.35;;;;;;;27.60;50.01;100184.81;1736008;80;21028;-68
2021/06/19 08:44:51;;;;;;;5.85;3.25;;;;;;;27.66;49.71;100171.96;1735805;80;21058;-68
2021/06/19 08:47:18;;;;;;;9.28;3.00;;;;;;;27.71;49.87;100189.72;1743234;82;21034;-69
2021/06/19 08:49:46;;;;;;;7.37;3.20;;;;;;;27.76;49.70;100185.64;1740001;81;21030;-68
2021/06/19 08:52:12;;;;;;;5.78;2.83;;;;;;;27.82;49.37;100185.10;1746610;80;22414;-69
2021/06/19 08:54:39;;;;;;;3.90;3.25;;;;;;;27.85;49.25;100179.92;1728062;82;20987;-69
2021/06/19 08:57:08;;;;;;;5.40;2.77;;;;;;;27.88;49.31;100179.94;1704812;83;21018;-69
2021/06/19 08:59:36;;;;;;;4.55;3.42;;;;;;;27.93;49.40;100184.05;1756639;80;21546;-69
2021/06/19 09:02:04;;;;;;;3.55;3.12;;;;;;;28.00;49.19;100185.13;1738541;81;21077;-68
2021/06/19 09:04:31;;;;;;;4.12;3.10;;;;;;;28.06;48.67;100187.31;1734750;81;21208;-68
2021/06/19 09:06:59;;;;;;;5.22;3.05;;;;;;;28.09;48.49;100174.48;1709125;82;21077;-69
2021/06/19 09:09:26;;;;;;;3.60;2.90;;;;;;;28.15;48.47;100185.67;1738497;81;21103;-69
2021/06/19 09:11:53;;;;;;;3.35;2.98;;;;;;;28.19;48.52;100173.11;1737550;81;21094;-69
2021/06/19 09:14:25;;;;;;;4.42;3.27;;;;;;;28.24;47.88;100169.02;1728154;81;21683;-69
2021/06/19 09:16:59;;;;;;;4.67;3.08;;;;;;;28.28;47.64;100170.09;1742431;81;22035;-69
2021/06/19 09:19:35;;;;;;;7.90;3.02;;;;;;;28.33;47.79;100165.97;1737454;80;21100;-68
2021/06/19 09:22:20;;;;;;;3.83;3.17;;;;;;;28.37;47.96;100161.59;1741870;80;21094;-69
2021/06/19 09:24:56;;;;;;;9.95;3.70;;;;;;;28.42;48.18;100164.31;1742599;80;21011;-68
2021/06/19 09:27:38;;;;;;;8.85;3.65;;;;;;;28.48;48.09;100149.29;1742932;81;21031;-68
2021/06/19 09:30:11;;;;;;;4.30;3.22;;;;;;;28.52;47.97;100166.80;1734298;81;21154;-68
2021/06/19 09:32:47;;;;;;;3.87;3.47;;;;;;;28.56;47.89;100162.41;1738652;80;21026;-68
2021/06/19 09:35:17;;;;;;;6.30;3.80;;;;;;;28.61;47.85;100161.03;1745665;80;21066;-69
2021/06/19 09:37:48;;;;;;;4.37;2.83;;;;;;;28.67;47.37;100157.74;1742608;80;21058;-69
2021/06/19 09:40:24;;;;;;;5.80;3.22;;;;;;;28.72;46.88;100161.80;1742770;80;21101;-69
2021/06/19 09:42:54;;;;;;;7.45;3.02;;;;;;;28.76;46.63;100167.82;1710874;82;21153;-70
2021/06/19 09:45:23;;;;;;;9.18;3.37;;;;;;;28.83;46.43;100164.22;1710670;82;21013;-69
2021/06/19 09:47:51;;;;;;;6.17;3.00;;;;;;;28.89;46.34;100158.18;1742358;80;21086;-68
2021/06/19 09:50:19;;;;;;;10.13;3.50;;;;;;;28.95;46.17;100157.61;1742786;81;21351;-68
2021/06/19 09:52:46;;;;;;;6.35;3.12;;;;;;;29.01;45.94;100160.58;1742847;82;21094;-70
2021/06/19 09:55:14;;;;;;;6.35;3.83;;;;;;;29.08;45.87;100142.52;1719615;82;21514;-69
2021/06/19 09:57:49;;;;;;;6.97;3.52;;;;;;;29.15;45.55;100155.37;1709899;83;20991;-68
2021/06/19 10:00:21;;;;;;;7.62;3.20;;;;;;;29.20;45.32;100152.03;1701050;83;21518;-68
2021/06/19 10:02:48;;;;;;;7.08;3.22;;;;;;;29.27;45.41;100140.80;1703236;83;21102;-68
2021/06/19 10:05:14;;;;;;;6.00;3.27;;;;;;;29.36;45.47;100142.37;1700734;83;21061;-69
2021/06/19 10:07:41;;;;;;;6.87;2.90;;;;;;;29.43;45.38;100135.22;1689734;83;21976;-69
2021/06/19 10:10:10;;;;;;;7.80;2.70;;;;;;;29.52;45.63;100134.89;1689258;82;21089;-69
2021/06/19 10:12:38;;;;;;;5.95;3.08;;;;;;;29.58;44.95;100134.55;1700817;83;21530;-69
2021/06/19 10:15:11;;;;;;;7.10;3.05;;;;;;;29.66;44.21;100118.63;1695220;82;21052;-69
2021/06/19 10:17:44;;;;;;;6.00;2.58;;;;;;;29.72;43.84;100127.06;1699680;83;21105;-70
2021/06/19 10:20:14;;;;;;;6.37;2.83;;;;;;;29.81;43.58;100127.31;1696043;83;21171;-69
2021/06/19 10:22:42;;;;;;;9.30;3.20;;;;;;;29.89;43.38;100141.19;1696711;83;21042;-68
2021/06/19 10:25:13;;;;;;;7.17;2.98;;;;;;;29.98;43.00;100128.51;1693876;83;21126;-68
2021/06/19 10:27:48;;;;;;;5.35;3.02;;;;;;;30.07;42.37;100127.31;1694577;83;21522;-68
2021/06/19 10:30:16;;;;;;;8.53;3.10;;;;;;;30.16;42.02;100124.78;1697713;84;21007;-68
2021/06/19 10:32:50;;;;;;;5.12;2.70;;;;;;;30.24;41.99;100116.48;1698207;83;21188;-66
2021/06/19 10:35:19;;;;;;;8.90;3.50;;;;;;;30.33;41.82;100122.44;1695635;82;21015;-70
2021/06/19 10:37:47;;;;;;;6.62;3.35;;;;;;;30.39;43.97;100113.61;1698435;83;22061;-72
2021/06/19 10:40:26;;;;;;;8.05;3.62;;;;;;;30.37;44.40;100111.15;1699855;82;21061;-72
2021/06/19 10:42:55;;;;;;;5.20;3.40;;;;;;;30.37;44.67;100114.45;1702145;83;21007;-73
2021/06/19 10:45:25;;;;;;;5.92;3.50;;;;;;;30.31;45.04;100115.59;1742018;80;21119;-74
2021/06/19 10:48:08;;;;;;;4.30;3.15;;;;;;;30.25;45.11;100117.56;1729471;82;21109;-73
2021/06/19 10:50:35;;;;;;;7.58;3.40;;;;;;;30.21;44.97;100116.52;1754281;80;21078;-74
2021/06/19 10:53:12;;;;;;;6.72;3.15;;;;;;;30.16;45.09;100111.89;1745092;80;21030;-74
2021/06/19 10:55:55;;;;;;;10.68;3.10;;;;;;;30.13;45.02;100111.64;1739119;80;21093;-74
2021/06/19 10:58:28;;;;;;;5.65;3.20;;;;;;;30.09;44.94;100111.41;1758361;80;21150;-71
2021/06/19 11:01:03;;;;;;;6.55;2.95;;;;;;;30.07;44.95;100118.29;1742093;80;21030;-74
2021/06/19 11:03:50;;;;;;;8.80;3.22;;;;;;;30.04;45.01;100106.53;1728425;81;20999;-73
2021/06/19 11:06:27;;;;;;;4.47;3.22;;;;;;;29.99;45.06;100107.41;1748428;80;21065;-74
2021/06/19 11:09:04;;;;;;;7.58;3.17;;;;;;;29.93;44.90;100116.78;1748615;80;21037;-74
2021/06/19 11:11:55;;;;;;;5.97;2.55;;;;;;;29.90;45.07;100120.92;1749033;81;21157;-73
2021/06/19 11:14:46;;;;;;;3.77;2.50;;;;;;;29.88;45.12;100125.88;1741007;80;20998;-70
2021/06/19 11:17:34;;;;;;;6.58;2.98;;;;;;;29.90;44.19;100125.56;1750434;80;21029;-70
2021/06/19 11:20:05;;;;;;;8.18;2.90;;;;;;;29.92;43.32;100118.71;1755827;80;21085;-70
2021/06/19 11:22:39;;;;;;;6.17;2.83;;;;;;;29.98;43.38;100108.53;1724761;82;21519;-69
2021/06/19 11:25:52;;;;;;;5.22;2.52;;;;;;;30.03;43.27;100115.30;1713483;82;21157;-69
2021/06/19 11:28:21;;;;;;;5.90;2.60;;;;;;;30.02;42.88;100110.11;1714012;82;21084;-70
2021/06/19 11:30:55;;;;;;;4.35;2.52;;;;;;;30.14;42.79;100110.55;1695781;82;21100;-69
2021/06/19 11:33:26;;;;;;;8.93;2.58;;;;;;;30.21;42.77;100112.41;1701696;82;21513;-69
2021/06/19 11:36:08;;;;;;;5.47;2.40;;;;;;;30.32;42.37;100116.67;1720590;82;21049;-69